createdAt,value
2023-03-22T00:00:00.313Z,4.22
2023-03-22T00:02:27.624Z,3.63
2023-03-22T00:04:54.596Z,3.75
2023-03-22T00:07:21.696Z,3.75
2023-03-22T00:09:48.598Z,3.63
2023-03-22T00:12:15.509Z,3.70
2023-03-22T00:14:42.894Z,4.20
2023-03-22T00:17:09.784Z,4.88
2023-03-22T00:19:37.402Z,3.75
2023-03-22T00:22:06.285Z,3.45
2023-03-22T00:24:33.387Z,4.68
2023-03-22T00:27:00.974Z,4.00
2023-03-22T00:29:27.975Z,4.15
2023-03-22T00:31:56.087Z,4.40
2023-03-22T00:34:23.236Z,4.13
2023-03-22T00:36:51.864Z,4.10
2023-03-22T00:39:18.806Z,4.10
2023-03-22T00:41:45.970Z,3.70
2023-03-22T00:44:12.791Z,4.03
2023-03-22T00:46:39.636Z,3.63
2023-03-22T00:49:06.473Z,3.67
2023-03-22T00:51:33.360Z,3.58
2023-03-22T00:54:00.448Z,3.28
2023-03-22T00:56:28.704Z,4.25
2023-03-22T00:59:01.120Z,3.83
2023-03-22T01:01:29.058Z,3.83
2023-03-22T01:03:56.178Z,4.80
2023-03-22T01:06:23.023Z,3.70
2023-03-22T01:08:50.992Z,4.32
2023-03-22T01:11:18.451Z,5.40
2023-03-22T01:13:45.631Z,4.68
2023-03-22T01:16:12.676Z,4.85
2023-03-22T01:18:40.744Z,5.07
2023-03-22T01:21:09.025Z,5.13
2023-03-22T01:23:36.397Z,4.93
2023-03-22T01:26:05.628Z,5.22
2023-03-22T01:28:33.278Z,5.10
2023-03-22T01:31:04.240Z,5.22
2023-03-22T01:33:31.742Z,4.32
2023-03-22T01:35:59.364Z,4.70
2023-03-22T01:38:27.249Z,5.25
2023-03-22T01:40:58.077Z,6.57
2023-03-22T01:43:26.371Z,5.38
2023-03-22T01:45:55.097Z,7.03
2023-03-22T01:48:45.992Z,5.60
2023-03-22T01:51:25.306Z,7.63
2023-03-22T01:54:30.495Z,6.78
2023-03-22T01:57:00.501Z,5.57
2023-03-22T01:59:40.108Z,7.80
2023-03-22T02:02:19.310Z,6.38
2023-03-22T02:05:07.242Z,7.30
2023-03-22T02:07:54.198Z,6.85
2023-03-22T02:10:27.388Z,8.68
2023-03-22T02:13:38.960Z,7.13
2023-03-22T02:16:34.336Z,8.43
2023-03-22T02:20:07.929Z,9.23
2023-03-22T02:23:12.088Z,7.50
2023-03-22T02:25:57.262Z,7.38
2023-03-22T02:28:42.951Z,9.77
2023-03-22T02:32:11.514Z,9.10
2023-03-22T02:35:41.821Z,7.38
2023-03-22T02:39:01.197Z,8.27
2023-03-22T02:41:52.246Z,10.15
2023-03-22T02:45:06.034Z,7.55
2023-03-22T02:48:15.334Z,7.72
2023-03-22T02:50:59.369Z,6.88
2023-03-22T02:53:44.464Z,7.65
2023-03-22T02:56:19.177Z,6.97
2023-03-22T02:58:53.443Z,7.40
2023-03-22T03:01:48.113Z,7.38
2023-03-22T03:04:35.459Z,7.53
2023-03-22T03:07:09.561Z,7.85
2023-03-22T03:09:42.924Z,7.70
2023-03-22T03:12:21.366Z,6.30
2023-03-22T03:14:48.806Z,6.35
2023-03-22T03:17:23.554Z,7.65
2023-03-22T03:20:08.280Z,5.90
2023-03-22T03:23:24.502Z,7.15
2023-03-22T03:26:10.151Z,7.15
2023-03-22T03:28:49.821Z,6.15
2023-03-22T03:31:46.853Z,5.07
2023-03-22T03:34:19.921Z,5.88
2023-03-22T03:36:58.811Z,5.65
2023-03-22T03:39:30.948Z,4.50
2023-03-22T03:42:00.999Z,5.30
2023-03-22T03:44:31.563Z,5.63
2023-03-22T03:46:59.752Z,4.50
2023-03-22T03:49:27.218Z,6.18
2023-03-22T03:51:56.119Z,4.60
2023-03-22T03:54:24.246Z,4.93
2023-03-22T03:56:51.233Z,4.20
2023-03-22T03:59:18.994Z,3.97
2023-03-22T04:01:52.535Z,5.05
2023-03-22T04:04:29.637Z,3.97
2023-03-22T04:07:06.737Z,4.15
2023-03-22T04:09:38.959Z,5.10
2023-03-22T04:12:16.956Z,2.85
2023-03-22T04:14:55.907Z,5.22
2023-03-22T04:17:29.240Z,4.72
2023-03-22T04:19:56.637Z,4.78
2023-03-22T04:22:26.276Z,3.83
2023-03-22T04:24:53.172Z,3.95
2023-03-22T04:27:22.610Z,4.00
2023-03-22T04:30:19.640Z,3.53
2023-03-22T04:33:08.620Z,3.88
2023-03-22T04:36:10.616Z,4.22
2023-03-22T04:38:51.801Z,3.50
2023-03-22T04:41:22.112Z,2.95
2023-03-22T04:43:51.884Z,3.97
2023-03-22T04:46:21.291Z,4.90
2023-03-22T04:48:55.501Z,3.38
2023-03-22T04:51:23.669Z,2.53
2023-03-22T04:54:15.630Z,3.42
2023-03-22T04:56:44.157Z,4.32
2023-03-22T04:59:12.160Z,3.20
2023-03-22T05:01:40.785Z,3.45
2023-03-22T05:04:13.829Z,3.33
2023-03-22T05:06:41.999Z,4.00
2023-03-22T05:09:16.368Z,4.07
2023-03-22T05:11:43.636Z,2.90
2023-03-22T05:14:27.645Z,3.45
2023-03-22T05:16:54.639Z,3.42
2023-03-22T05:19:24.427Z,2.90
2023-03-22T05:21:58.311Z,4.25
2023-03-22T05:24:37.077Z,3.30
2023-03-22T05:27:04.340Z,3.30
2023-03-22T05:29:36.934Z,3.88
2023-03-22T05:32:12.235Z,3.05
2023-03-22T05:34:41.872Z,2.88
2023-03-22T05:37:22.431Z,4.47
2023-03-22T05:39:54.811Z,4.60
2023-03-22T05:42:27.027Z,3.80
2023-03-22T05:44:53.871Z,3.33
2023-03-22T05:47:22.125Z,2.85
2023-03-22T05:49:57.442Z,3.28
2023-03-22T05:52:25.517Z,2.90
2023-03-22T05:55:19.974Z,2.53
2023-03-22T05:57:51.504Z,3.20
2023-03-22T06:00:20.003Z,2.28
2023-03-22T06:03:06.832Z,2.58
2023-03-22T06:05:39.102Z,3.20
2023-03-22T06:08:06.751Z,3.45
2023-03-22T06:10:33.675Z,2.40
2023-03-22T06:13:00.955Z,3.05
2023-03-22T06:15:31.725Z,2.88
2023-03-22T06:18:07.820Z,3.25
2023-03-22T06:20:40.298Z,2.67
2023-03-22T06:23:13.737Z,2.85
2023-03-22T06:25:42.162Z,3.08
2023-03-22T06:28:09.323Z,2.70
2023-03-22T06:30:38.699Z,2.78
2023-03-22T06:33:20.838Z,3.40
2023-03-22T06:35:53.684Z,3.05
2023-03-22T06:38:30.731Z,2.63
2023-03-22T06:40:57.786Z,3.40
2023-03-22T06:43:24.716Z,3.17
2023-03-22T06:45:57.561Z,2.85
2023-03-22T06:48:31.196Z,2.95
2023-03-22T06:51:05.794Z,3.20
2023-03-22T06:53:35.518Z,3.00
2023-03-22T06:56:04.787Z,3.35
2023-03-22T06:58:41.047Z,3.15
2023-03-22T07:01:07.973Z,3.30
2023-03-22T07:03:36.441Z,3.50
2023-03-22T07:06:09.311Z,3.88
2023-03-22T07:08:39.950Z,3.38
2023-03-22T07:11:08.690Z,3.05
2023-03-22T07:13:36.964Z,3.88
2023-03-22T07:16:10.236Z,2.83
2023-03-22T07:18:55.963Z,3.83
2023-03-22T07:21:23.083Z,3.70
2023-03-22T07:23:55.434Z,3.58
2023-03-22T07:26:26.335Z,3.33
2023-03-22T07:28:57.915Z,3.03
2023-03-22T07:31:29.238Z,4.45
2023-03-22T07:36:32.870Z,4.05
2023-03-22T07:38:59.835Z,3.58
2023-03-22T07:41:34.062Z,2.92
2023-03-22T07:44:19.261Z,4.22
2023-03-22T07:46:58.808Z,4.13
2023-03-22T07:49:31.958Z,3.78
2023-03-22T07:52:06.689Z,3.53
2023-03-22T07:54:34.672Z,4.47
2023-03-22T07:57:04.005Z,3.15
2023-03-22T07:59:34.575Z,4.32
2023-03-22T08:02:02.356Z,3.97
2023-03-22T08:04:38.894Z,4.20
2023-03-22T08:07:15.695Z,4.07
2023-03-22T08:09:42.883Z,3.90
2023-03-22T08:12:10.990Z,2.75
2023-03-22T08:14:39.143Z,3.33
2023-03-22T08:17:12.736Z,3.25
2023-03-22T08:19:40.398Z,3.90
2023-03-22T08:22:13.419Z,2.95
2023-03-22T08:25:10.191Z,3.08
2023-03-22T08:27:39.457Z,4.50
2023-03-22T08:30:07.528Z,3.50
2023-03-22T08:32:34.497Z,2.90
2023-03-22T08:35:02.262Z,3.40
2023-03-22T08:37:29.618Z,1.80
2023-03-22T08:39:56.769Z,2.80
2023-03-22T08:42:23.594Z,2.75
2023-03-22T08:44:52.057Z,2.45
2023-03-22T08:47:21.178Z,2.35
2023-03-22T08:49:52.141Z,2.75
2023-03-22T08:52:24.293Z,2.50
2023-03-22T08:55:05.397Z,2.05
2023-03-22T08:58:04.739Z,2.55
2023-03-22T09:03:25.310Z,2.53
2023-03-22T09:05:52.998Z,2.92
2023-03-22T09:08:20.523Z,3.17
2023-03-22T09:10:53.008Z,2.45
2023-03-22T09:13:22.597Z,2.30
2023-03-22T09:15:54.754Z,2.38
2023-03-22T09:18:25.335Z,2.33
2023-03-22T09:20:54.005Z,2.03
2023-03-22T09:23:25.442Z,1.80
2023-03-22T09:25:53.069Z,2.45
2023-03-22T09:28:24.335Z,2.53
2023-03-22T09:30:53.223Z,2.00
2023-03-22T09:33:20.756Z,2.22
2023-03-22T09:35:50.744Z,2.13
2023-03-22T09:38:18.016Z,2.22
2023-03-22T09:41:00.746Z,1.70
2023-03-22T09:43:38.485Z,2.45
2023-03-22T09:46:17.586Z,2.40
2023-03-22T09:48:49.504Z,2.47
2023-03-22T09:51:44.551Z,2.60
2023-03-22T09:54:15.972Z,2.47
2023-03-22T09:56:51.437Z,1.70
2023-03-22T09:59:32.542Z,2.80
2023-03-22T10:02:05.015Z,2.03
2023-03-22T10:04:59.651Z,2.25
2023-03-22T10:07:53.506Z,1.70
2023-03-22T10:10:24.254Z,2.92
2023-03-22T10:13:13.821Z,1.95
2023-03-22T10:15:49.136Z,2.78
2023-03-22T10:18:39.216Z,2.13
2023-03-22T10:21:12.721Z,1.80
2023-03-22T10:24:05.281Z,1.98
2023-03-22T10:26:45.002Z,1.50
2023-03-22T10:29:39.877Z,2.47
2023-03-22T10:32:19.658Z,1.90
2023-03-22T10:34:47.487Z,2.60
2023-03-22T10:37:27.014Z,2.22
2023-03-22T10:40:02.560Z,2.30
2023-03-22T10:42:31.528Z,2.55
2023-03-22T10:45:04.318Z,3.50
2023-03-22T10:47:46.559Z,2.30
2023-03-22T10:50:28.556Z,2.60
2023-03-22T10:53:04.052Z,2.55
2023-03-22T10:55:30.886Z,2.75
2023-03-22T10:58:14.899Z,2.42
2023-03-22T11:00:53.826Z,2.20
2023-03-22T11:03:36.482Z,2.42
2023-03-22T11:06:13.303Z,2.10
2023-03-22T11:08:52.918Z,2.83
2023-03-22T11:11:30.277Z,2.75
2023-03-22T11:14:14.084Z,2.08
2023-03-22T11:16:47.504Z,2.83
2023-03-22T11:19:24.225Z,3.30
2023-03-22T11:21:52.782Z,2.92
2023-03-22T11:24:21.574Z,2.72
2023-03-22T11:27:18.288Z,2.65
2023-03-22T11:29:57.242Z,3.42
2023-03-22T11:32:31.222Z,3.22
2023-03-22T11:35:31.278Z,3.50
2023-03-22T11:37:59.386Z,3.47
2023-03-22T11:40:36.210Z,2.70
2023-03-22T11:43:23.257Z,2.63
2023-03-22T11:45:58.687Z,2.92
2023-03-22T11:48:31.652Z,2.13
2023-03-22T11:51:37.462Z,2.72
2023-03-22T11:54:13.232Z,2.67
2023-03-22T11:56:45.299Z,2.72
2023-03-22T11:59:22.978Z,2.25
2023-03-22T12:02:18.848Z,2.55
2023-03-22T12:04:48.474Z,2.15
2023-03-22T12:07:24.463Z,2.05
2023-03-22T12:10:03.443Z,2.70
2023-03-22T12:12:39.504Z,2.22
2023-03-22T12:15:26.928Z,2.38
2023-03-22T12:18:00.301Z,2.08
2023-03-22T12:20:36.114Z,2.63
2023-03-22T12:23:13.162Z,1.70
2023-03-22T12:25:51.328Z,2.55
2023-03-22T12:28:29.951Z,2.10
2023-03-22T12:30:59.059Z,2.42
2023-03-22T12:33:45.354Z,2.13
2023-03-22T12:36:19.361Z,2.38
2023-03-22T12:38:57.692Z,2.20
2023-03-22T12:41:53.915Z,2.20
2023-03-22T12:44:39.236Z,2.33
2023-03-22T12:47:23.798Z,2.63
2023-03-22T12:50:05.334Z,2.25
2023-03-22T12:52:46.335Z,2.30
2023-03-22T12:55:27.794Z,2.83
2023-03-22T12:57:55.702Z,2.67
2023-03-22T13:00:38.829Z,2.30
2023-03-22T13:03:18.200Z,1.90
2023-03-22T13:05:49.136Z,2.15
2023-03-22T13:08:21.707Z,2.17
2023-03-22T13:11:04.449Z,2.50
2023-03-22T13:13:43.214Z,2.50
2023-03-22T13:16:11.167Z,1.98
2023-03-22T13:18:38.289Z,2.25
2023-03-22T13:21:09.053Z,1.80
2023-03-22T13:23:35.930Z,2.05
2023-03-22T13:26:06.161Z,1.80
2023-03-22T13:28:37.316Z,2.13
2023-03-22T13:31:05.755Z,1.88
2023-03-22T13:33:37.367Z,2.50
2023-03-22T13:36:25.641Z,2.05
2023-03-22T13:39:00.018Z,1.65
2023-03-22T13:41:31.202Z,2.28
2023-03-22T13:44:03.598Z,1.77
2023-03-22T13:46:36.916Z,2.20
2023-03-22T13:49:04.193Z,1.58
2023-03-22T13:51:33.348Z,1.50
2023-03-22T13:54:16.510Z,1.60
2023-03-22T13:57:01.639Z,2.10
2023-03-22T13:59:30.950Z,1.95
2023-03-22T14:02:15.608Z,2.15
2023-03-22T14:05:01.923Z,2.13
2023-03-22T14:07:44.393Z,1.77
2023-03-22T14:10:43.699Z,1.90
2023-03-22T14:13:35.160Z,1.50
2023-03-22T14:17:05.747Z,1.98
2023-03-22T14:19:35.902Z,1.70
